Date,TemperatureHighF,TemperatureAvgF,TemperatureLowF,DewpointHighF,DewpointAvgF,DewpointLowF,HumidityHigh,HumidityAvg,HumidityLow,PressureMaxIn,PressureMinIn,WindSpeedMaxMPH,WindSpeedAvgMPH,GustSpeedMaxMPH,PrecipitationSumIn
2013-7-1,91.0,72.6,56.5,62.2,56.7,51.3,91,62,29,29.84,29.80,9,1,9,0.00
2013-7-2,91.7,71.5,59.0,61.8,57.6,54.6,87,64,34,29.91,29.81,8,1,8,0.00
2013-7-3,92.7,71.4,56.1,61.6,56.6,53.5,93,65,29,29.91,29.75,8,1,8,0.00
2013-7-4,92.2,74.5,62.4,61.8,57.3,51.7,77,58,33,29.77,29.67,10,1,10,0.00
2013-7-5,68.5,59.3,54.2,55.0,52.5,50.9,90,79,61,29.81,29.72,14,2,14,0.00
2013-7-6,76.0,61.1,53.2,56.2,52.7,50.1,91,75,50,29.80,29.73,12,1,12,0.00
2013-7-7,78.4,62.9,53.2,55.8,53.1,50.4,92,73,43,29.86,29.77,9,1,9,0.00
2013-7-8,80.6,64.8,53.4,56.6,53.6,50.7,92,70,41,29.97,29.86,8,1,8,0.00
2013-7-9,89.8,67.7,51.0,59.0,53.4,48.8,95,66,28,30.02,29.92,9,1,9,0.00
2013-7-10,81.0,63.1,53.1,56.4,53.0,50.3,94,73,36,29.97,29.89,10,1,10,0.00
2013-7-11,72.3,58.8,53.0,55.3,52.1,50.5,93,80,54,29.94,29.88,11,1,11,0.00
2013-7-12,75.3,62.5,52.7,55.5,52.3,48.1,90,72,43,29.93,29.88,8,1,8,0.00
2013-7-13,81.0,63.8,49.3,56.0,51.1,47.0,96,68,34,29.96,29.89,9,1,9,0.00
2013-7-14,74.2,60.5,49.4,55.8,52.0,46.9,94,76,49,29.99,29.90,9,1,9,0.00
2013-7-15,70.3,58.0,52.4,55.0,51.9,50.1,93,81,57,29.92,29.84,10,1,10,0.00
2013-7-16,69.7,60.1,55.9,55.0,53.0,51.1,88,78,59,30.03,29.86,12,2,12,0.00
2013-7-17,74.5,61.4,55.3,57.0,54.2,53.0,90,78,55,30.10,30.02,4,1,9,0.00
2013-7-18,81.2,63.4,53.2,57.0,53.5,51.0,94,74,35,30.07,29.95,6,1,8,0.00
2013-7-19,80.7,63.6,53.7,57.0,54.0,51.0,92,74,41,29.96,29.83,5,1,7,0.00
2013-7-20,80.5,61.6,53.3,57.0,53.4,51.0,94,77,43,29.86,29.74,4,1,8,0.00
2013-7-21,79.5,63.1,52.7,58.0,53.5,50.0,93,74,46,29.87,29.77,4,1,7,0.00
2013-7-22,77.5,64.0,53.0,59.0,55.5,50.0,95,76,51,29.94,29.87,6,1,7,0.00
2013-7-23,80.2,69.5,58.9,59.4,55.0,50.1,85,62,36,29.99,29.93,7,1,7,0.00
2013-7-24,85.1,67.9,55.0,58.8,53.2,38.5,91,64,21,29.98,29.89,10,1,10,0.00
2013-7-25,78.6,62.8,53.1,55.9,52.3,45.8,93,72,32,30.02,29.92,8,1,8,0.00
2013-7-26,79.3,62.6,53.5,58.1,54.2,50.9,94,77,47,30.09,30.00,9,1,9,0.00
2013-7-27,75.1,61.9,54.0,58.1,54.8,52.4,96,80,52,30.03,29.86,8,1,8,0.00
2013-7-28,71.0,60.2,54.6,57.4,54.1,51.3,94,82,57,29.88,29.81,10,1,10,0.00
2013-7-29,72.8,60.3,54.3,55.9,53.1,51.3,91,78,54,30.01,29.84,10,1,10,0.00
2013-7-30,74.8,61.8,53.7,56.2,53.4,50.6,91,76,52,30.09,30.01,9,1,9,0.00
2013-7-31,72.0,60.3,53.5,55.8,52.9,51.2,92,78,54,30.09,30.03,7,1,11,0.00